createdAt,value
2023-03-29T00:04:30.844Z,12.17176
2023-03-29T00:09:32.444Z,11.906964
2023-03-29T00:14:33.752Z,11.980836
2023-03-29T00:19:35.037Z,12.290752
2023-03-29T00:24:36.519Z,11.991258
2023-03-29T00:29:37.842Z,12.697838
2023-03-29T00:34:39.196Z,11.736884
2023-03-29T00:39:40.801Z,11.795138
2023-03-29T00:44:42.111Z,12.498352
2023-03-29T00:49:43.436Z,12.553688
2023-03-29T00:54:45.058Z,12.79642
2023-03-29T00:59:46.521Z,12.354202
2023-03-29T01:04:47.940Z,12.640018
2023-03-29T01:09:49.367Z,13.16961
2023-03-29T01:14:51.373Z,12.264006
2023-03-29T01:19:52.792Z,12.056854
2023-03-29T01:24:54.422Z,12.203378
2023-03-29T01:29:55.691Z,12.807548
2023-03-29T01:34:57.249Z,12.27592
2023-03-29T01:39:58.646Z,12.890526
2023-03-29T01:44:59.909Z,13.148266
2023-03-29T01:50:01.182Z,12.446448
2023-03-29T01:55:02.476Z,12.3521
2023-03-29T02:00:03.726Z,12.643112
2023-03-29T02:05:05.120Z,12.992202
2023-03-29T02:10:06.761Z,12.845854
2023-03-29T02:15:08.028Z,12.978252
2023-03-29T02:20:09.308Z,13.205094
2023-03-29T02:25:10.675Z,12.60604
2023-03-29T02:30:12.103Z,11.98773
2023-03-29T02:35:13.415Z,13.10624
2023-03-29T02:40:14.913Z,12.77992
2023-03-29T02:45:16.317Z,12.777884
2023-03-29T02:50:17.650Z,13.455058
2023-03-29T02:55:19.370Z,12.638078
2023-03-29T03:00:20.613Z,12.50382
2023-03-29T03:05:22.077Z,12.333902
2023-03-29T03:10:23.377Z,13.37147
2023-03-29T03:15:24.682Z,13.313664
2023-03-29T03:20:25.946Z,13.241284
2023-03-29T03:25:27.505Z,13.82738
2023-03-29T03:30:28.826Z,13.398392
2023-03-29T03:35:30.244Z,12.767286
2023-03-29T03:40:31.778Z,12.906578
2023-03-29T03:45:33.417Z,13.48137
2023-03-29T03:50:34.712Z,12.860686
2023-03-29T03:55:36.071Z,12.736836
2023-03-29T04:00:37.336Z,12.559862
2023-03-29T04:05:38.824Z,13.116118
2023-03-29T04:10:40.290Z,12.926606
2023-03-29T04:15:41.638Z,13.3119
2023-03-29T04:20:42.931Z,13.213032
2023-03-29T04:25:44.256Z,13.008702
2023-03-29T04:30:45.683Z,13.194496
2023-03-29T04:35:47.112Z,13.209952
2023-03-29T04:40:48.418Z,13.02105
2023-03-29T04:45:49.715Z,13.813254
2023-03-29T04:50:50.983Z,13.283648
2023-03-29T04:55:52.706Z,13.75428
2023-03-29T05:00:54.055Z,14.293874
2023-03-29T05:05:55.341Z,13.963034
2023-03-29T05:10:56.720Z,14.823384
2023-03-29T05:15:58.393Z,14.635364
2023-03-29T05:21:00.199Z,14.663264
2023-03-29T05:26:01.784Z,14.142044
2023-03-29T05:31:03.187Z,14.455392
2023-03-29T05:36:04.834Z,15.10293
2023-03-29T05:41:06.456Z,15.389098
2023-03-29T05:46:07.980Z,15.396588
2023-03-29T05:51:09.420Z,15.678266
2023-03-29T05:56:10.800Z,16.283088
2023-03-29T06:01:12.195Z,16.123672
2023-03-29T06:06:13.607Z,16.74182
2023-03-29T06:11:15.638Z,16.88103
2023-03-29T06:16:17.034Z,17.302962
2023-03-29T06:21:18.321Z,18.09864
2023-03-29T06:26:19.906Z,18.019448
2023-03-29T06:31:21.270Z,18.337858
2023-03-29T06:36:22.590Z,18.776752
2023-03-29T06:41:24.696Z,18.964772
2023-03-29T06:46:26.180Z,20.035886
2023-03-29T06:51:27.465Z,19.87354
2023-03-29T06:56:28.792Z,20.38803
2023-03-29T07:01:30.227Z,19.447984
2023-03-29T07:06:31.521Z,20.579836
2023-03-29T07:11:33.624Z,19.387966
2023-03-29T07:16:35.049Z,20.469312
2023-03-29T07:21:37.844Z,21.171646
2023-03-29T07:26:46.337Z,21.659432
2023-03-29T07:31:53.941Z,20.856072
2023-03-29T07:36:55.161Z,20.865218
2023-03-29T07:41:56.764Z,20.707648
2023-03-29T07:46:58.028Z,21.743984
2023-03-29T07:51:59.263Z,21.259794
2023-03-29T07:57:00.747Z,20.955944
2023-03-29T08:02:02.386Z,20.631726
2023-03-29T08:07:04.096Z,21.545814
2023-03-29T08:12:05.527Z,21.601802
2023-03-29T08:17:06.863Z,22.09967
2023-03-29T08:22:08.421Z,21.380292
2023-03-29T08:27:09.914Z,21.665606
2023-03-29T08:32:11.273Z,22.572082
2023-03-29T08:37:12.697Z,22.258312
2023-03-29T08:42:14.287Z,22.137882
2023-03-29T08:47:15.554Z,22.76439
2023-03-29T08:52:16.872Z,24.120196
2023-03-29T08:57:18.204Z,23.46701
2023-03-29T09:02:19.659Z,23.513404
2023-03-29T09:07:21.018Z,24.483468
2023-03-29T09:12:22.500Z,24.873214
2023-03-29T09:17:23.823Z,25.081698
2023-03-29T09:22:25.127Z,25.28782
2023-03-29T09:27:26.706Z,25.345002
2023-03-29T09:32:28.004Z,26.476748
2023-03-29T09:37:29.322Z,25.959434
2023-03-29T09:42:31.555Z,25.412986
2023-03-29T09:47:33.040Z,26.981252
2023-03-29T09:52:34.487Z,25.703416
2023-03-29T09:57:36.210Z,26.627018
2023-03-29T10:02:37.580Z,26.535884
2023-03-29T10:07:38.870Z,26.252306
2023-03-29T10:12:40.714Z,26.85013
2023-03-29T10:17:42.143Z,26.638702
2023-03-29T10:22:43.435Z,27.126204
2023-03-29T10:27:44.929Z,26.711326
2023-03-29T10:32:46.290Z,26.704704
2023-03-29T10:37:47.615Z,27.776392
2023-03-29T10:42:49.245Z,27.433216
2023-03-29T10:47:50.564Z,26.65238
2023-03-29T10:52:51.873Z,28.359478
2023-03-29T10:57:53.448Z,27.008352
2023-03-29T11:02:55.116Z,25.89586
2023-03-29T11:07:56.605Z,26.59768
2023-03-29T11:12:58.955Z,27.152514
2023-03-29T11:18:00.423Z,27.414232
2023-03-29T11:23:01.788Z,27.3282
2023-03-29T11:28:03.064Z,27.58061
2023-03-29T11:33:04.946Z,28.110964
2023-03-29T11:38:06.229Z,29.273406
2023-03-29T11:43:08.332Z,27.618808
2023-03-29T11:48:09.639Z,27.05096
2023-03-29T11:53:11.169Z,25.500822
2023-03-29T11:58:12.788Z,27.964656
2023-03-29T12:03:14.138Z,27.197512
2023-03-29T12:08:15.526Z,26.19024
2023-03-29T12:13:17.256Z,28.00394
2023-03-29T12:18:18.574Z,27.825174
2023-03-29T12:23:20.061Z,28.258602
2023-03-29T12:28:21.321Z,28.287736
2023-03-29T12:33:22.632Z,26.824932
2023-03-29T12:38:24.033Z,25.624848
2023-03-29T12:43:25.456Z,25.238684
2023-03-29T12:48:26.885Z,24.652708
2023-03-29T12:53:28.250Z,22.536828
2023-03-29T12:58:29.628Z,22.745352
2023-03-29T13:03:31.058Z,22.318534
2023-03-29T13:08:32.420Z,21.282686
2023-03-29T13:13:34.696Z,21.296432
2023-03-29T13:18:36.026Z,21.613974
2023-03-29T13:23:37.299Z,21.25267
2023-03-29T13:28:38.716Z,22.132278
2023-03-29T13:33:40.078Z,20.595984
2023-03-29T13:38:41.323Z,21.0296
2023-03-29T13:43:43.429Z,20.461808
2023-03-29T13:48:44.705Z,20.570568
2023-03-29T13:53:46.085Z,21.118494
2023-03-29T13:58:47.530Z,20.802662
2023-03-29T14:03:49.044Z,20.911558
2023-03-29T14:08:50.319Z,20.395344
2023-03-29T14:13:51.566Z,20.229904
2023-03-29T14:18:52.815Z,21.635794
2023-03-29T14:23:54.216Z,22.59572
2023-03-29T14:28:55.588Z,22.207942
2023-03-29T14:33:57.181Z,22.083726
2023-03-29T14:38:58.460Z,21.312648
2023-03-29T14:43:59.745Z,21.929684
2023-03-29T14:49:01.017Z,21.594678
2023-03-29T14:54:02.579Z,21.296568
2023-03-29T14:59:03.979Z,21.020264
2023-03-29T15:04:05.240Z,20.523848
2023-03-29T15:09:07.062Z,20.49466
2023-03-29T15:14:08.684Z,20.703428
2023-03-29T15:19:10.010Z,20.433122
2023-03-29T15:24:11.245Z,20.395602
2023-03-29T15:29:12.781Z,20.64516
2023-03-29T15:34:14.242Z,19.84389
2023-03-29T15:39:15.712Z,20.522206
2023-03-29T15:44:17.001Z,20.59175
2023-03-29T15:49:18.280Z,19.723582
2023-03-29T15:54:19.757Z,18.981028
2023-03-29T15:59:21.224Z,19.525412
2023-03-29T16:04:22.564Z,19.312926
2023-03-29T16:09:23.991Z,19.400762
2023-03-29T16:14:25.641Z,18.980662
2023-03-29T16:19:26.930Z,18.27404
2023-03-29T16:24:28.566Z,17.988116
2023-03-29T16:29:30.035Z,17.98513
2023-03-29T16:34:31.402Z,18.26636
2023-03-29T16:39:32.948Z,17.794098
2023-03-29T16:44:34.709Z,18.10111
2023-03-29T16:49:37.150Z,17.938248
2023-03-29T16:54:40.031Z,17.92898
2023-03-29T16:59:41.519Z,16.48142
2023-03-29T17:04:42.880Z,17.057298
2023-03-29T17:09:44.341Z,16.948294
2023-03-29T17:14:45.735Z,16.593884
2023-03-29T17:19:47.328Z,16.670674
2023-03-29T17:24:48.569Z,16.456004
2023-03-29T17:29:50.185Z,16.988976
2023-03-29T17:34:51.736Z,16.373474
2023-03-29T17:39:53.005Z,15.742612
2023-03-29T17:44:54.678Z,16.017572
2023-03-29T17:49:55.928Z,15.608966
2023-03-29T17:54:57.194Z,15.361376
2023-03-29T17:59:58.490Z,14.896294
2023-03-29T18:04:59.793Z,16.054644
2023-03-29T18:10:01.065Z,16.161626
2023-03-29T18:15:02.714Z,15.198784
2023-03-29T18:20:04.147Z,16.154828
2023-03-29T18:25:05.476Z,15.507994
2023-03-29T18:30:06.889Z,15.506312
2023-03-29T18:35:08.372Z,15.559274
2023-03-29T18:40:09.791Z,15.336842
2023-03-29T18:45:11.036Z,16.397126
2023-03-29T18:50:12.342Z,15.568542
2023-03-29T18:55:13.730Z,15.386086
2023-03-29T19:00:15.030Z,15.102306
2023-03-29T19:05:16.303Z,14.788334
2023-03-29T19:10:17.881Z,15.492892
2023-03-29T19:15:19.191Z,15.302416
2023-03-29T19:20:20.706Z,16.251742
2023-03-29T19:25:22.127Z,15.9158
2023-03-29T19:30:23.712Z,15.297382
2023-03-29T19:35:25.061Z,15.129404
2023-03-29T19:40:26.413Z,15.39245
2023-03-29T19:45:27.656Z,14.680036
2023-03-29T19:50:28.931Z,14.063586
2023-03-29T19:55:30.491Z,14.172156
2023-03-29T20:00:31.964Z,14.054928
2023-03-29T20:05:33.226Z,14.588238
2023-03-29T20:10:34.524Z,14.874406
2023-03-29T20:15:36.174Z,14.278322
2023-03-29T20:20:37.510Z,14.758508
2023-03-29T20:25:39.086Z,14.471362
2023-03-29T20:30:40.369Z,15.0361
2023-03-29T20:35:41.881Z,15.008744
2023-03-29T20:40:43.231Z,14.884284
2023-03-29T20:45:52.505Z,15.096308
2023-03-29T20:50:55.073Z,14.930528
2023-03-29T20:55:56.519Z,15.809334
2023-03-29T21:00:58.025Z,14.619826
2023-03-29T21:05:59.356Z,15.36702
2023-03-29T21:11:00.779Z,15.066034
2023-03-29T21:16:02.529Z,14.933012
2023-03-29T21:21:04.083Z,14.772362
2023-03-29T21:26:05.530Z,14.923568
2023-03-29T21:31:07.411Z,14.75118
2023-03-29T21:36:08.830Z,14.929036
2023-03-29T21:41:10.363Z,15.132418
2023-03-29T21:46:11.869Z,14.315666
2023-03-29T21:51:13.354Z,14.388046
2023-03-29T21:56:14.620Z,13.939816
2023-03-29T22:01:16.037Z,14.317158
2023-03-29T22:13:31.992Z,14.521068
2023-03-29T22:18:35.059Z,14.385224
2023-03-29T22:23:36.555Z,13.914754
2023-03-29T22:28:38.004Z,14.567056
2023-03-29T22:33:39.954Z,14.329086
2023-03-29T22:38:41.373Z,14.331284
2023-03-29T22:43:42.749Z,14.358654
2023-03-29T22:48:44.578Z,15.087298
2023-03-29T22:53:45.941Z,14.48188
2023-03-29T22:58:47.434Z,14.076896
2023-03-29T23:03:50.423Z,13.873544
2023-03-29T23:08:51.813Z,14.093668
2023-03-29T23:13:54.209Z,14.066136
2023-03-29T23:18:55.649Z,14.405252
2023-03-29T23:23:58.386Z,14.123074
2023-03-29T23:28:59.749Z,14.539604
2023-03-29T23:34:01.456Z,14.938128
2023-03-29T23:39:03.037Z,14.722752
2023-03-29T23:44:04.993Z,14.392632
2023-03-29T23:49:06.400Z,14.901842
2023-03-29T23:54:07.775Z,14.969908
2023-03-29T23:59:09.062Z,14.775008
